This is the latest recevied weather packets stored in our database for station/object WZ9ZZZ-1. If no packets are shown the sender has not sent any weather packets the latest 10 day(s).
| Time | Temp. | Humidity | Pressure | Rain* | Wind** | Luminosity | Snow |
|---|---|---|---|---|---|---|---|
| 1777907031 | 23.33° C | 68% | 1019.3 hPa | 0 mm | - | 413 W/m² | - |
| 1777906729 | 23.89° C | 67% | 1019.7 hPa | 0 mm | - | 147 W/m² | - |
| 1777906425 | 24.44° C | 66% | 1019.5 hPa | 0 mm | - | 154 W/m² | - |
| 1777906122 | 23.89° C | 68% | 1019.6 hPa | 0 mm | - | 561 W/m² | - |
| 1777905818 | 23.89° C | 68% | 1019.5 hPa | 0 mm | - | 422 W/m² | - |
| 1777905516 | 23.89° C | 70% | 1019.7 hPa | 0 mm | - | 495 W/m² | - |
| 1777905212 | 23.33° C | 71% | 1019.4 hPa | 0 mm | - | 430 W/m² | - |
| 1777904910 | 23.33° C | 70% | 1019.6 hPa | 0 mm | - | 399 W/m² | - |
| 1777904607 | 23.33° C | 70% | 1019.5 hPa | 0 mm | - | 369 W/m² | - |
| 1777904304 | 23.89° C | 68% | 1019.2 hPa | 0 mm | - | 357 W/m² | - |
| 1777904001 | 23.33° C | 71% | 1019.3 hPa | 0 mm | - | 353 W/m² | - |
| 1777903698 | 22.78° C | 71% | 1019.4 hPa | 0 mm | - | 331 W/m² | - |
| 1777903394 | 22.78° C | 71% | 1019.3 hPa | 0 mm | - | 309 W/m² | - |
| 1777903091 | 22.22° C | 72% | 1019.5 hPa | 0 mm | - | 277 W/m² | - |
| 1777902787 | 22.22° C | 72% | 1019.4 hPa | 0 mm | - | 273 W/m² | - |
| 1777902485 | 22.22° C | 71% | 1019.6 hPa | 0 mm | - | 238 W/m² | - |
| 1777902181 | 22.22° C | 70% | 1019.7 hPa | 0 mm | - | 221 W/m² | - |
| 1777901879 | 21.67° C | 71% | 1019.4 hPa | 0 mm | - | 223 W/m² | - |
| 1777901576 | 21.67° C | 71% | 1019.3 hPa | 0 mm | - | 209 W/m² | - |
| 1777901274 | 21.11° C | 71% | 1019.5 hPa | 0 mm | - | 198 W/m² | - |
| 1777900971 | 21.11° C | 71% | 1019.5 hPa | 0 mm | - | 149 W/m² | - |
| 1777900668 | 21.67° C | 70% | 1019.4 hPa | 0 mm | - | 153 W/m² | - |
| 1777900366 | 21.11° C | 71% | 1019.3 hPa | 0 mm | - | 149 W/m² | - |
| 1777900063 | 20.56° C | 72% | 1019.5 hPa | 0 mm | - | 115 W/m² | - |
| 1777899758 | 20.56° C | 72% | 1019.5 hPa | 0 mm | - | 71 W/m² | - |
* Rain latest hour (hover to see other rain measurements)
** Current wind speed in m/s (hover to see current wind gust speed)